Data for 03/02/2013

Time Sea-Level Adjusted Pressure Absolute Pressure Temperature Relative Humidity Dew Point   
(mb) (inHg) (mb) (inHg) (C) (F) (%) (C) (F)
00:05 1027 30.33 856 25.28 6 42.8 52 -3.2 26.2
00:10 1027 30.33 856 25.28 6.1 43 53 -2.8 26.9
00:15 1027 30.33 856 25.28 5.7 42.2 56 -2.5 27.5
00:20 1027 30.33 856 25.28 5.3 41.6 55 -3 26.7
00:25 1027 30.33 856 25.28 5.5 41.9 54 -3 26.6
00:30 1027 30.33 856 25.28 5.5 41.8 54 -3 26.5
00:35 1027 30.33 856 25.28 5.6 42 54 -2.9 26.8
00:40 1027 30.33 856 25.28 5.5 42 54 -3.1 26.5
00:45 1027 30.33 856 25.28 5.5 41.9 56 -2.4 27.6
00:50 1027 30.33 856 25.28 4.7 40.4 62 -2.1 28.3
00:55 1027 30.33 856 25.28 4 39.3 61 -2.8 27
01:00 1027 30.33 856 25.28 4 39.2 63 -2.4 27.7
01:05 1026 30.3 856 25.28 3.9 39 61 -3 26.6
01:10 1026 30.3 856 25.28 4.4 39.9 58 -3.1 26.4
01:15 1026 30.3 856 25.28 4.8 40.6 58 -2.8 26.9
01:20 1026 30.3 856 25.28 4.5 40.1 61 -2.4 27.8
01:25 1026 30.3 856 25.28 4.2 39.5 61 -2.8 27
01:30 1026 30.3 856 25.28 4.3 39.8 60 -2.7 27.1
01:35 1026 30.3 856 25.28 4.2 39.6 60 -2.9 26.7
01:40 1026 30.3 856 25.28 4 39.3 65 -2 28.3
01:45 1026 30.3 856 25.28 3.1 37.6 66 -2.6 27.3
01:50 1026 30.3 856 25.28 3.4 38.1 63 -2.9 26.7
01:55 1026 30.3 856 25.28 3.8 38.8 60 -3.2 26.2
02:00 1026 30.3 856 25.28 4.2 39.6 60 -2.8 27
02:05 1026 30.3 856 25.28 4.1 39.4 62 -2.6 27.4
02:10 1026 30.3 856 25.28 3.8 38.9 63 -2.6 27.4
02:15 1026 30.3 856 25.28 3.9 39 61 -3 26.5
02:20 1026 30.3 856 25.28 3.9 39 62 -2.7 27.2
02:25 1026 30.3 856 25.28 3.5 38.3 63 -2.8 26.9
02:30 1026 30.3 856 25.28 3.7 38.6 60 -3.3 26.1
02:35 1026 30.3 856 25.28 4.1 39.3 59 -3.2 26.2
02:40 1026 30.3 856 25.28 4.2 39.6 58 -3.3 26
02:45 1027 30.33 856 25.28 4.3 39.8 56 -3.6 25.6
02:50 1026 30.3 856 25.28 4.6 40.3 56 -3.3 26
02:55 1026 30.3 856 25.28 4.5 40.1 57 -3.2 26.2
03:00 1026 30.3 856 25.28 4.6 40.2 56 -3.6 25.6
03:05 1026 30.3 856 25.28 4.7 40.5 55 -3.6 25.5
03:10 1026 30.3 856 25.28 4.7 40.4 56 -3.2 26.2
03:15 1026 30.3 855 25.25 4.5 40.1 54 -3.9 24.9
03:20 1026 30.3 855 25.25 5 41 52 -4 24.8
03:25 1026 30.3 855 25.25 5.1 41.2 53 -3.8 25.2
03:30 1026 30.3 855 25.25 5 41 54 -3.6 25.5
03:35 1026 30.3 855 25.25 4.7 40.5 55 -3.5 25.7
03:40 1026 30.3 855 25.25 4.5 40.1 55 -3.7 25.4
03:45 1026 30.3 855 25.25 4.4 40 56 -3.6 25.5
03:50 1026 30.3 855 25.25 4.5 40 56 -3.6 25.5
03:55 1026 30.3 855 25.25 4.3 39.7 57 -3.6 25.6
04:00 1026 30.3 855 25.25 4.2 39.5 57 -3.5 25.7
04:05 1026 30.3 855 25.25 3.9 39.1 59 -3.3 26.1
04:10 1026 30.3 855 25.25 3.3 37.9 64 -2.9 26.9
04:15 1026 30.3 855 25.25 2.4 36.2 65 -3.6 25.5
04:20 1026 30.3 855 25.25 2.4 36.3 66 -3.3 26
04:25 1026 30.3 855 25.25 2.5 36.4 63 -3.8 25.1
04:30 1026 30.3 855 25.25 2.8 37 63 -3.6 25.5
04:35 1026 30.3 855 25.25 2.8 37.1 62 -3.7 25.3
04:40 1026 30.3 855 25.25 3 37.4 61 -3.8 25.1
04:45 1026 30.3 855 25.25 3.1 37.6 60 -3.9 25
04:50 1026 30.3 855 25.25 3.3 37.9 60 -3.8 25.1
04:55 1026 30.3 855 25.25 3.1 37.6 61 -3.7 25.3
05:00 1026 30.3 855 25.25 2.8 37 62 -3.7 25.4
05:05 1026 30.3 855 25.25 2.8 37.1 61 -4 24.8
05:10 1026 30.3 855 25.25 3 37.4 61 -3.9 25
05:15 1026 30.3 855 25.25 3 37.5 60 -4 24.9
05:20 1026 30.3 855 25.25 3.1 37.6 61 -3.8 25.2
05:25 1026 30.3 855 25.25 3 37.4 61 -3.9 25
05:30 1026 30.3 855 25.25 2.9 37.2 63 -3.5 25.7
05:35 1026 30.3 855 25.25 2.2 36 64 -3.9 25
05:40 1026 30.3 855 25.25 2.1 35.8 64 -4 24.8
05:45 1026 30.3 855 25.25 2.5 36.6 62 -4 24.8
05:50 1026 30.3 855 25.25 2.8 37 61 -3.9 25
05:55 1026 30.3 855 25.25 2.9 37.3 61 -3.9 25
06:00 1026 30.3 855 25.25 2.7 36.8 63 -3.6 25.5
06:05 1026 30.3 855 25.25 2.3 36.2 64 -3.8 25.2
06:10 1026 30.3 855 25.25 2.1 35.8 64 -3.9 25
06:15 1026 30.3 855 25.25 1.9 35.5 65 -3.9 24.9
06:20 1026 30.3 855 25.25 1.8 35.2 67 -3.8 25.2
06:25 1026 30.3 855 25.25 1.3 34.4 68 -4 24.7
06:30 1026 30.3 855 25.25 1.3 34.3 68 -4 24.9
06:35 1026 30.3 855 25.25 1.1 33.9 69 -4 24.8
06:40 1026 30.3 855 25.25 1.4 34.6 65 -4.5 23.9
06:45 1026 30.3 855 25.25 2.3 36.1 61 -4.5 24
06:50 1026 30.3 855 25.25 2.6 36.7 61 -4.1 24.6
06:55 1026 30.3 855 25.25 2.6 36.6 61 -4.3 24.3
07:00 1026 30.3 855 25.25 2.6 36.7 61 -4.1 24.6
07:05 1026 30.3 855 25.25 2.4 36.4 63 -4 24.8
07:10 1026 30.3 855 25.25 2.2 36 63 -4.1 24.6
07:15 1026 30.3 855 25.25 2.1 35.8 63 -4.2 24.5
07:20 1026 30.3 855 25.25 2 35.6 64 -4.1 24.6
07:25 1026 30.3 855 25.25 1.8 35.2 64 -4.3 24.2
07:30 1026 30.3 855 25.25 2.1 35.8 63 -4.3 24.3
07:35 1026 30.3 855 25.25 2 35.7 64 -4 24.8
07:40 1026 30.3 855 25.25 1.4 34.5 67 -4.2 24.5
07:45 1026 30.3 855 25.25 1 33.7 68 -4.3 24.2
07:50 1026 30.3 855 25.25 1.1 34 67 -4.4 24
07:55 1026 30.3 855 25.25 1.1 34 67 -4.4 24.2
08:00 1026 30.3 855 25.25 1.2 34.1 66 -4.5 23.9
08:05 1026 30.3 855 25.25 1.3 34.3 66 -4.5 24
08:10 1026 30.3 855 25.25 1.3 34.4 65 -4.6 23.7
08:15 1026 30.3 855 25.25 1.7 35.1 63 -4.5 23.9
08:20 1026 30.3 855 25.25 1.6 34.8 64 -4.4 24
08:25 1026 30.3 855 25.25 1.5 34.6 64 -4.6 23.7
08:30 1026 30.3 855 25.25 1.4 34.5 66 -4.3 24.3
08:35 1026 30.3 855 25.25 1.3 34.3 65 -4.6 23.8
08:40 1026 30.3 855 25.25 1.2 34.1 66 -4.5 23.8
08:45 1025 30.27 855 25.25 1 33.7 66 -4.6 23.7
08:50 1025 30.27 855 25.25 0.9 33.6 67 -4.6 23.8
08:55 1025 30.27 855 25.25 1 33.7 67 -4.6 23.7
09:00 1025 30.27 855 25.25 1.3 34.3 65 -4.6 23.8
09:05 1025 30.27 855 25.25 1.3 34.4 65 -4.5 23.9
09:10 1025 30.27 854 25.22 1.4 34.5 65 -4.5 23.8
09:15 1025 30.27 854 25.22 1.5 34.6 64 -4.6 23.8
09:20 1025 30.27 854 25.22 1.7 35.1 64 -4.4 24
09:25 1025 30.27 854 25.22 1.9 35.3 63 -4.5 24
09:30 1025 30.27 854 25.22 1.9 35.4 63 -4.5 23.9
09:35 1025 30.27 854 25.22 2 35.5 63 -4.4 24.1
09:40 1025 30.27 854 25.22 2.2 36 61 -4.5 23.8
09:45 1025 30.27 854 25.22 2.5 36.5 60 -4.5 23.9
09:50 1025 30.27 854 25.22 2.6 36.7 60 -4.4 24.1
09:55 1025 30.27 854 25.22 2.5 36.5 60 -4.4 24
10:00 1025 30.27 854 25.22 2.5 36.4 61 -4.4 24.1
10:05 1025 30.27 854 25.22 2.6 36.6 60 -4.3 24.2
10:10 1025 30.27 854 25.22 2.8 37 59 -4.4 24.2
10:15 1025 30.27 854 25.22 3 37.4 58 -4.4 24.1
10:20 1025 30.27 854 25.22 3.1 37.7 59 -4 24.7
10:25 1025 30.27 854 25.22 3.2 37.8 59 -4 24.7
10:30 1025 30.27 854 25.22 3.3 38 59 -3.8 25.1
10:35 1025 30.27 854 25.22 3.4 38.2 58 -4 24.8
10:40 1025 30.27 854 25.22 3.7 38.6 57 -4 24.8
10:45 1024 30.24 854 25.22 3.9 39 56 -4 24.8
10:50 1024 30.24 853 25.19 4 39.2 56 -3.9 24.9
10:55 1024 30.24 853 25.19 4.2 39.5 56 -3.9 25
11:00 1024 30.24 853 25.19 4.5 40.2 53 -4.2 24.4
11:05 1024 30.24 853 25.19 5 40.9 53 -3.8 25.2
11:10 1024 30.24 853 25.19 5.4 41.8 51 -3.8 25.2
11:15 1024 30.24 853 25.19 5.8 42.4 50 -3.7 25.3
11:20 1024 30.24 853 25.19 6 42.8 48 -4 24.7
11:25 1024 30.24 853 25.19 6.5 43.6 47 -4 24.7
11:30 1024 30.24 853 25.19 6.3 43.4 47 -4.2 24.5
11:35 1024 30.24 853 25.19 6.9 44.4 45 -4.3 24.2
11:40 1024 30.24 853 25.19 7.2 45 44 -4.2 24.5
11:45 1024 30.24 853 25.19 7.8 46 42 -4.2 24.5
11:50 1024 30.24 853 25.19 7.7 45.8 42 -4.3 24.2
11:55 1024 30.24 853 25.19 7.7 45.8 43 -4 24.7
12:00 1024 30.24 853 25.19 7.9 46.1 43 -4 24.9
12:05 1024 30.24 853 25.19 8.1 46.7 42 -4 24.8
12:10 1024 30.24 853 25.19 8.2 46.8 42 -4 24.7
12:15 1024 30.24 853 25.19 8.2 46.7 43 -3.8 25.2
12:20 1023 30.21 853 25.19 8.3 46.9 43 -3.7 25.4
12:25 1023 30.21 853 25.19 8.3 46.9 43 -3.6 25.6
12:30 1023 30.21 852 25.16 8.4 47.2 41 -4 24.7
12:35 1023 30.21 852 25.16 8.2 46.7 44 -3.4 26
12:40 1023 30.21 852 25.16 8.2 46.8 45 -3 26.6
12:45 1023 30.21 852 25.16 8.3 46.9 45 -3 26.6
12:50 1023 30.21 852 25.16 8.5 47.4 45 -2.8 27
12:55 1023 30.21 852 25.16 8.7 47.6 46 -2.2 28.1
13:00 1023 30.21 852 25.16 9 48.2 45 -2.3 27.8
13:05 1023 30.21 852 25.16 8.2 46.8 48 -2.1 28.3
13:10 1023 30.21 852 25.16 8 46.4 48 -2.4 27.6
13:15 1023 30.21 852 25.16 8.6 47.5 45 -2.6 27.3
13:20 1023 30.21 852 25.16 9.3 48.8 44 -2.2 28
13:25 1023 30.21 852 25.16 8.9 47.9 43 -2.9 26.7
13:30 1022 30.18 852 25.16 8.8 47.9 45 -2.6 27.4
13:35 1022 30.18 851 25.13 9.4 49 43 -2.5 27.5
13:40 1022 30.18 851 25.13 10.2 50.4 42 -2 28.3
13:45 1022 30.18 851 25.13 10.5 51 39 -2.8 27
13:50 1022 30.18 851 25.13 10 50 45 -1.3 29.6
13:55 1022 30.18 851 25.13 9.2 48.5 46 -1.9 28.6
14:00 1022 30.18 851 25.13 8.6 47.5 49 -1.4 29.5
14:05 1022 30.18 851 25.13 8.6 47.4 43 -3.2 26.3
14:10 1022 30.18 851 25.13 9.1 48.5 43 -2.7 27.1
14:15 1021 30.15 851 25.13 9.8 49.6 43 -2.2 28
14:20 1021 30.15 851 25.13 9.4 48.8 43 -2.7 27.2
14:25 1021 30.15 850 25.1 9 48.3 43 -2.8 27
14:30 1021 30.15 850 25.1 9.2 48.5 44 -2.4 27.7
14:35 1021 30.15 850 25.1 9.9 49.7 42 -2.5 27.5
14:40 1021 30.15 850 25.1 9.8 49.6 44 -1.8 28.7
14:45 1021 30.15 850 25.1 9.7 49.5 43 -2.2 28.1
14:50 1021 30.15 850 25.1 9 48.2 46 -1.9 28.6
14:55 1021 30.15 850 25.1 9.1 48.5 47 -1.5 29.3
15:00 1021 30.15 850 25.1 8.9 48 45 -2.3 27.9
15:05 1021 30.15 850 25.1 8.6 47.4 46 -2.3 27.9
15:10 1021 30.15 850 25.1 8.8 47.8 46 -2.2 28
15:15 1020 30.12 850 25.1 9.1 48.4 46 -2 28.4
15:20 1020 30.12 850 25.1 9.5 49 43 -2.4 27.6
15:25 1020 30.12 849 25.07 9.6 49.2 44 -2 28.4
15:30 1020 30.12 849 25.07 9.8 49.6 44 -1.8 28.7
15:35 1020 30.12 849 25.07 9.8 49.6 47 -0.9 30.3
15:40 1020 30.12 849 25.07 8.9 48.1 49 -1.1 30.1
15:45 1020 30.12 849 25.07 8.9 48 48 -1.5 29.4
15:50 1020 30.12 849 25.07 9.2 48.5 48 -1.3 29.6
15:55 1020 30.12 849 25.07 9.1 48.4 48 -1.2 29.8
16:00 1020 30.12 849 25.07 9 48.2 48 -1.4 29.4
16:05 1020 30.12 849 25.07 9.3 48.8 48 -1 30.2
16:10 1020 30.12 849 25.07 9.6 49.2 46 -1.4 29.4
16:15 1020 30.12 849 25.07 9.3 48.8 47 -1.5 29.3
16:20 1020 30.12 849 25.07 9.3 48.7 46 -1.6 29.1
16:25 1020 30.12 849 25.07 9.4 48.9 46 -1.7 28.9
16:30 1020 30.12 849 25.07 9.5 49 46 -1.6 29.1
16:35 1020 30.12 849 25.07 9.3 48.8 46 -1.6 29
16:40 1020 30.12 849 25.07 9.1 48.5 46 -1.8 28.8
16:45 1020 30.12 849 25.07 9.3 48.7 44 -2.4 27.6
16:50 1019 30.09 849 25.07 9.3 48.7 44 -2.2 28
16:55 1019 30.09 849 25.07 9.3 48.8 45 -2.1 28.3
17:00 1019 30.09 849 25.07 9.4 49 46 -1.6 29.2
17:05 1019 30.09 848 25.04 9.4 48.9 48 -1 30.1
17:10 1019 30.09 848 25.04 9 48.3 48 -1.4 29.5
17:15 1019 30.09 848 25.04 8.9 47.9 48 -1.6 29.1
17:20 1019 30.09 848 25.04 9.2 48.6 48 -1.3 29.6
17:25 1019 30.09 848 25.04 9.2 48.6 45 -1.9 28.5
17:30 1019 30.09 848 25.04 9 48.2 45 -2.4 27.6
17:35 1019 30.09 848 25.04 9.2 48.5 45 -2 28.4
17:40 1019 30.09 848 25.04 9.3 48.7 41 -3.1 26.3
17:45 1018 30.06 848 25.04 9.2 48.6 38 -4.4 24.2
17:50 1018 30.06 848 25.04 9.2 48.5 39 -4.1 24.7
17:55 1018 30.06 848 25.04 9.3 48.7 43 -2.8 27
18:00 1018 30.06 847 25.01 9.2 48.6 41 -3.2 26.3
18:05 1018 30.06 847 25.01 9.1 48.3 42 -3.2 26.2
18:10 1018 30.06 847 25.01 8.9 47.9 43 -3.2 26.3
18:15 1018 30.06 847 25.01 8.9 48 42 -3.4 25.8
18:20 1018 30.06 847 25.01 9 48.1 41 -3.5 25.7
18:25 1018 30.06 847 25.01 8.9 48 43 -2.9 26.9
18:30 1017 30.03 847 25.01 8.7 47.7 43 -3 26.6
18:35 1017 30.03 847 25.01 8.6 47.5 44 -3.1 26.5
18:40 1018 30.06 847 25.01 8.5 47.4 43 -3.3 26.1
18:45 1018 30.06 847 25.01 8.5 47.2 44 -3.2 26.2
18:50 1018 30.06 847 25.01 8.3 46.9 45 -3 26.6
18:55 1018 30.06 847 25.01 8.3 47 45 -2.7 27.1
19:00 1018 30.06 847 25.01 8.2 46.7 46 -2.7 27.1
19:05 1017 30.03 847 25.01 8 46.4 47 -2.7 27.1
19:10 1017 30.03 847 25.01 7.8 46.1 48 -2.6 27.3
19:15 1017 30.03 847 25.01 7.7 45.8 47 -2.8 27
19:20 1017 30.03 847 25.01 7.4 45.3 48 -2.8 26.9
19:25 1017 30.03 847 25.01 7.2 45 50 -2.5 27.5
19:30 1017 30.03 847 25.01 6.8 44.3 50 -2.9 26.8
19:35 1017 30.03 847 25.01 6.6 43.9 52 -2.5 27.5
19:40 1017 30.03 847 25.01 6.2 43.2 49 -3.6 25.4
19:45 1017 30.03 846 24.98 6.5 43.7 50 -3.3 26.1
19:50 1017 30.03 846 24.98 6.3 43.4 51 -2.9 26.7
19:55 1017 30.03 846 24.98 6.1 43 53 -2.8 26.9
20:00 1017 30.03 846 24.98 6 42.8 52 -3 26.7
20:05 1017 30.03 846 24.98 6.1 42.9 50 -3.6 25.5
20:10 1017 30.03 846 24.98 6.3 43.3 51 -3.2 26.2
20:15 1017 30.03 846 24.98 6.2 43.2 51 -3.2 26.3
20:20 1017 30.03 846 24.98 6.1 42.9 53 -2.8 27
20:25 1017 30.03 846 24.98 6 42.7 52 -3.2 26.2
20:30 1017 30.03 846 24.98 6.1 42.9 51 -3.2 26.2
20:35 1017 30.03 846 24.98 6.1 42.9 52 -2.9 26.7
20:40 1017 30.03 846 24.98 5.9 42.7 53 -2.9 26.7
20:45 1017 30.03 846 24.98 5.6 42.1 55 -2.8 27
20:50 1017 30.03 846 24.98 5.5 42 55 -2.8 26.9
20:55 1017 30.03 846 24.98 5.5 41.9 56 -2.7 27.2
21:00 1017 30.03 846 24.98 4.9 40.8 60 -2.2 28
21:05 1017 30.03 846 24.98 4.3 39.8 60 -2.7 27.1
21:10 1017 30.03 846 24.98 4.5 40.1 60 -2.7 27.2
21:15 1017 30.03 846 24.98 4.5 40.1 61 -2.5 27.6
21:20 1017 30.03 846 24.98 4.2 39.6 61 -2.7 27.2
21:25 1016 30 846 24.98 4.2 39.6 61 -2.7 27.1
21:30 1016 30 846 24.98 4.6 40.2 59 -2.8 27
21:35 1016 30 846 24.98 4.7 40.5 58 -2.8 26.9
21:40 1016 30 846 24.98 4.8 40.7 58 -2.9 26.8
21:45 1016 30 845 24.95 4.9 40.8 58 -2.6 27.2
21:50 1016 30 845 24.95 4.8 40.7 58 -2.7 27.1
21:55 1016 30 845 24.95 4.8 40.6 58 -2.8 27
22:00 1016 30 845 24.95 4.6 40.3 59 -2.6 27.3
22:05 1016 30 845 24.95 4.5 40 60 -2.7 27.2
22:10 1016 30 845 24.95 4.3 39.7 62 -2.4 27.6
22:15 1016 30 845 24.95 4.1 39.4 61 -2.8 27
22:20 1016 30 845 24.95 4.3 39.7 61 -2.5 27.5
22:25 1016 30 845 24.95 4 39.2 62 -2.6 27.3
22:30 1016 30 845 24.95 4 39.3 61 -2.9 26.8
22:35 1016 30 845 24.95 4.3 39.7 61 -2.6 27.4
22:40 1016 30 845 24.95 4.1 39.4 62 -2.6 27.4
22:45 1016 30 845 24.95 4.2 39.6 62 -2.4 27.6
22:50 1016 30 845 24.95 4.1 39.4 62 -2.4 27.7
22:55 1016 30 845 24.95 4 39.2 62 -2.6 27.4
23:00 1016 30 845 24.95 3.9 39 62 -2.7 27.2
23:05 1015 29.97 845 24.95 3.8 38.9 62 -2.8 27
23:10 1015 29.97 845 24.95 3.8 38.9 63 -2.6 27.2
23:15 1015 29.97 845 24.95 3.8 38.8 63 -2.6 27.3
23:20 1015 29.97 845 24.95 3.6 38.5 65 -2.4 27.8
23:25 1015 29.97 844 24.92 3.5 38.3 65 -2.5 27.5
23:30 1015 29.97 844 24.92 3.8 38.8 62 -2.9 26.8
23:35 1015 29.97 844 24.92 3.9 39 61 -2.8 26.9
23:40 1015 29.97 844 24.92 4 39.2 62 -2.5 27.4
23:45 1015 29.97 844 24.92 3.9 39 63 -2.6 27.4
23:50 1015 29.97 844 24.92 4 39.2 63 -2.4 27.7
23:55 1015 29.97 844 24.92 3.9 39.1 62 -2.8 27
24:00 1014 29.94 844 24.92 4.4 39.9 60 -2.8 27